createdAt,value
2022-07-29T00:00:51.440Z,40.00
2022-07-29T00:03:20.018Z,40.00
2022-07-29T00:05:49.934Z,40.30
2022-07-29T00:08:18.043Z,40.40
2022-07-29T00:10:46.112Z,40.40
2022-07-29T00:13:14.748Z,40.60
2022-07-29T00:15:43.393Z,40.50
2022-07-29T00:18:11.923Z,40.60
2022-07-29T00:20:40.089Z,40.80
2022-07-29T00:23:09.943Z,41.30
2022-07-29T00:25:42.358Z,40.70
2022-07-29T00:28:10.449Z,40.60
2022-07-29T00:30:38.995Z,40.80
2022-07-29T00:33:09.175Z,40.70
2022-07-29T00:35:46.057Z,41.00
2022-07-29T00:38:17.008Z,41.00
2022-07-29T00:40:46.638Z,41.10
2022-07-29T00:43:16.456Z,41.20
2022-07-29T00:45:45.578Z,41.30
2022-07-29T00:48:13.631Z,41.30
2022-07-29T00:50:41.914Z,41.30
2022-07-29T00:53:11.049Z,41.00
2022-07-29T00:55:41.012Z,40.70
2022-07-29T00:58:09.100Z,40.80
2022-07-29T01:00:38.301Z,41.00
2022-07-29T01:03:06.374Z,40.90
2022-07-29T01:05:49.642Z,40.90
2022-07-29T01:08:20.536Z,41.20
2022-07-29T01:10:51.703Z,41.00
2022-07-29T01:13:21.253Z,41.00
2022-07-29T01:15:57.016Z,41.10
2022-07-29T01:18:32.841Z,41.30
2022-07-29T01:21:23.858Z,41.30
2022-07-29T01:28:03.945Z,41.50
2022-07-29T01:30:37.464Z,41.40
2022-07-29T01:33:12.058Z,41.30
2022-07-29T01:35:43.165Z,41.50
2022-07-29T01:38:16.081Z,41.60
2022-07-29T01:40:49.964Z,41.60
2022-07-29T01:43:22.763Z,41.70
2022-07-29T01:45:58.846Z,41.90
2022-07-29T01:48:34.518Z,42.00
2022-07-29T01:51:10.328Z,41.90
2022-07-29T01:53:45.979Z,42.00
2022-07-29T01:56:15.982Z,42.00
2022-07-29T01:58:46.907Z,41.90
2022-07-29T02:01:19.072Z,41.80
2022-07-29T02:03:48.633Z,42.10
2022-07-29T02:06:23.473Z,41.90
2022-07-29T02:08:54.261Z,42.00
2022-07-29T02:11:22.347Z,42.00
2022-07-29T02:13:53.043Z,42.00
2022-07-29T02:16:25.244Z,42.00
2022-07-29T02:18:55.786Z,42.10
2022-07-29T02:21:27.330Z,42.20
2022-07-29T02:23:57.503Z,42.40
2022-07-29T02:26:27.916Z,42.40
2022-07-29T02:28:59.878Z,42.40
2022-07-29T02:31:35.886Z,42.60
2022-07-29T02:34:05.959Z,42.80
2022-07-29T02:36:35.683Z,42.60
2022-07-29T02:39:05.750Z,43.20
2022-07-29T02:41:42.335Z,42.60
2022-07-29T02:44:14.340Z,42.80
2022-07-29T02:46:50.073Z,42.90
2022-07-29T02:49:25.813Z,42.90
2022-07-29T02:52:00.031Z,43.00
2022-07-29T02:54:33.554Z,42.90
2022-07-29T02:57:06.463Z,43.00
2022-07-29T02:59:38.544Z,43.00
2022-07-29T03:02:11.027Z,43.10
2022-07-29T03:04:42.398Z,43.20
2022-07-29T03:07:12.526Z,43.20
2022-07-29T03:09:43.222Z,43.10
2022-07-29T03:12:12.635Z,43.30
2022-07-29T03:14:41.800Z,43.20
2022-07-29T03:17:11.969Z,43.30
2022-07-29T03:19:41.332Z,43.30
2022-07-29T03:22:10.166Z,43.40
2022-07-29T03:24:39.997Z,43.50
2022-07-29T03:27:08.145Z,43.50
2022-07-29T03:29:36.796Z,43.50
2022-07-29T03:32:08.960Z,43.40
2022-07-29T03:34:39.631Z,44.30
2022-07-29T03:37:09.034Z,43.90
2022-07-29T03:39:42.734Z,43.80
2022-07-29T03:42:15.713Z,43.90
2022-07-29T03:44:46.189Z,44.00
2022-07-29T03:47:16.483Z,44.00
2022-07-29T03:49:49.855Z,44.00
2022-07-29T03:52:18.312Z,44.20
2022-07-29T03:54:47.170Z,44.30
2022-07-29T03:57:17.723Z,44.40
2022-07-29T03:59:47.822Z,44.40
2022-07-29T04:02:21.577Z,44.40
2022-07-29T04:04:52.732Z,44.40
2022-07-29T04:07:21.349Z,44.50
2022-07-29T04:09:49.468Z,44.50
2022-07-29T04:12:17.984Z,44.70
2022-07-29T04:14:46.036Z,44.60
2022-07-29T04:17:15.002Z,44.70
2022-07-29T04:19:43.557Z,44.70
2022-07-29T04:22:13.189Z,44.70
2022-07-29T04:24:44.350Z,44.80
2022-07-29T04:27:12.744Z,44.90
2022-07-29T04:29:56.530Z,45.00
2022-07-29T04:32:26.638Z,45.20
2022-07-29T04:34:54.767Z,45.30
2022-07-29T04:37:24.738Z,45.40
2022-07-29T04:39:52.789Z,45.40
2022-07-29T04:42:21.507Z,45.40
2022-07-29T04:44:55.944Z,45.60
2022-07-29T04:47:24.789Z,45.60
2022-07-29T04:49:52.944Z,45.60
2022-07-29T04:52:21.492Z,45.50
2022-07-29T04:54:51.715Z,45.40
2022-07-29T04:57:20.281Z,45.40
2022-07-29T04:59:48.824Z,45.40
2022-07-29T05:02:17.466Z,45.30
2022-07-29T05:04:46.868Z,45.30
2022-07-29T05:07:15.692Z,45.50
2022-07-29T05:09:43.782Z,45.70
2022-07-29T05:12:13.246Z,45.50
2022-07-29T05:14:41.771Z,45.50
2022-07-29T05:17:10.307Z,45.50
2022-07-29T05:19:39.428Z,45.30
2022-07-29T05:22:08.393Z,45.70
2022-07-29T05:24:36.919Z,45.50
2022-07-29T05:27:05.861Z,45.40
2022-07-29T05:29:42.688Z,45.30
2022-07-29T05:32:13.930Z,45.20
2022-07-29T05:34:51.185Z,45.00
2022-07-29T05:37:20.404Z,45.10
2022-07-29T05:39:56.141Z,45.20
2022-07-29T05:42:25.308Z,45.10
2022-07-29T05:44:55.345Z,45.10
2022-07-29T05:47:23.995Z,45.00
2022-07-29T05:49:52.993Z,45.00
2022-07-29T05:52:21.189Z,45.00
2022-07-29T05:54:49.763Z,45.10
2022-07-29T05:57:19.166Z,45.00
2022-07-29T05:59:47.557Z,45.10
2022-07-29T06:02:17.981Z,45.00
2022-07-29T06:04:46.118Z,45.10
2022-07-29T06:07:14.225Z,45.00
2022-07-29T06:09:42.739Z,45.20
2022-07-29T06:12:11.249Z,45.20
2022-07-29T06:14:40.057Z,45.30
2022-07-29T06:17:08.168Z,45.30
2022-07-29T06:19:38.729Z,45.10
2022-07-29T06:22:06.850Z,45.10
2022-07-29T06:24:36.312Z,45.80
2022-07-29T06:27:04.452Z,45.10
2022-07-29T06:29:32.967Z,45.00
2022-07-29T06:32:01.111Z,45.10
2022-07-29T06:34:29.253Z,45.10
2022-07-29T06:36:59.154Z,45.20
2022-07-29T06:39:27.760Z,45.00
2022-07-29T06:41:56.294Z,45.00
2022-07-29T06:44:24.426Z,45.00
2022-07-29T06:46:53.152Z,45.20
2022-07-29T06:49:21.368Z,45.10
2022-07-29T06:51:49.904Z,45.10
2022-07-29T06:54:19.416Z,45.00
2022-07-29T06:56:48.831Z,45.00
2022-07-29T06:59:16.928Z,45.30
2022-07-29T07:01:45.499Z,46.00
2022-07-29T07:04:15.320Z,45.20
2022-07-29T07:06:44.186Z,45.40
2022-07-29T07:09:12.369Z,45.30
2022-07-29T07:11:42.276Z,45.40
2022-07-29T07:14:10.795Z,45.20
2022-07-29T07:16:38.918Z,45.20
2022-07-29T07:19:07.502Z,45.10
2022-07-29T07:21:36.931Z,45.70
2022-07-29T07:24:05.834Z,45.30
2022-07-29T07:26:35.058Z,45.00
2022-07-29T07:29:04.945Z,44.80
2022-07-29T07:31:33.203Z,44.90
2022-07-29T07:34:01.780Z,44.50
2022-07-29T07:36:29.866Z,44.60
2022-07-29T07:38:58.518Z,44.30
2022-07-29T07:41:26.618Z,44.10
2022-07-29T07:44:01.078Z,44.00
2022-07-29T07:46:31.310Z,43.90
2022-07-29T07:48:59.479Z,43.90
2022-07-29T07:51:28.406Z,43.60
2022-07-29T07:53:56.545Z,43.50
2022-07-29T07:56:29.663Z,44.20
2022-07-29T07:59:01.450Z,44.00
2022-07-29T08:01:31.476Z,44.20
2022-07-29T08:04:25.006Z,43.80
2022-07-29T08:06:56.493Z,43.80
2022-07-29T08:09:31.183Z,43.60
2022-07-29T08:12:00.472Z,44.10
2022-07-29T08:14:28.564Z,44.00
2022-07-29T08:16:58.491Z,43.90
2022-07-29T08:19:26.735Z,43.70
2022-07-29T08:21:55.474Z,43.50
2022-07-29T08:24:41.935Z,44.00
2022-07-29T08:27:33.422Z,43.80
2022-07-29T08:29:59.103Z,43.50
2022-07-29T08:32:51.231Z,43.30
2022-07-29T08:35:17.948Z,44.20
2022-07-29T08:37:46.028Z,43.80
2022-07-29T08:40:15.570Z,43.60
2022-07-29T08:42:44.314Z,43.40
2022-07-29T08:45:13.489Z,43.30
2022-07-29T08:47:43.330Z,43.20
2022-07-29T08:50:12.658Z,43.50
2022-07-29T08:52:42.320Z,43.40
2022-07-29T08:55:12.372Z,43.00
2022-07-29T08:57:50.879Z,42.70
2022-07-29T09:00:25.198Z,42.70
2022-07-29T09:02:59.771Z,42.70
2022-07-29T09:05:29.453Z,43.00
2022-07-29T09:07:58.410Z,42.80
2022-07-29T09:10:26.643Z,42.60
2022-07-29T09:12:56.684Z,42.50
2022-07-29T09:15:25.016Z,42.40
2022-07-29T09:17:54.916Z,42.30
2022-07-29T09:20:24.113Z,43.00
2022-07-29T09:22:54.591Z,42.10
2022-07-29T09:25:35.824Z,42.50
2022-07-29T09:28:12.140Z,42.30
2022-07-29T09:30:53.530Z,41.80
2022-07-29T09:33:23.873Z,41.90
2022-07-29T09:36:02.609Z,41.80
2022-07-29T09:38:32.328Z,41.70
2022-07-29T09:41:06.125Z,41.80
2022-07-29T09:43:35.473Z,42.00
2022-07-29T09:46:13.605Z,41.70
2022-07-29T09:48:43.591Z,41.40
2022-07-29T09:51:24.151Z,41.40
2022-07-29T09:53:57.190Z,41.40
2022-07-29T09:56:40.991Z,41.50
2022-07-29T09:59:10.006Z,41.30
2022-07-29T10:01:38.598Z,41.30
2022-07-29T10:04:08.202Z,41.30
2022-07-29T10:06:36.807Z,41.30
2022-07-29T10:09:11.194Z,41.40
2022-07-29T10:11:49.087Z,41.30
2022-07-29T10:14:18.255Z,41.20
2022-07-29T10:16:46.908Z,41.30
2022-07-29T10:19:17.455Z,41.30
2022-07-29T10:21:46.109Z,41.20
2022-07-29T10:24:15.668Z,41.30
2022-07-29T10:26:46.204Z,41.20
2022-07-29T10:29:15.081Z,41.00
2022-07-29T10:31:52.623Z,40.90
2022-07-29T10:34:33.498Z,40.90
2022-07-29T10:37:11.125Z,40.80
2022-07-29T10:39:55.557Z,40.70
2022-07-29T10:42:33.527Z,40.40
2022-07-29T10:45:05.162Z,40.80
2022-07-29T10:47:35.133Z,41.00
2022-07-29T10:50:07.780Z,40.80
2022-07-29T10:52:55.698Z,40.90
2022-07-29T10:55:36.337Z,40.50
2022-07-29T10:58:17.827Z,40.90
2022-07-29T11:00:47.285Z,40.50
2022-07-29T11:03:50.689Z,40.20
2022-07-29T11:06:26.284Z,40.10
2022-07-29T11:09:20.307Z,39.80
2022-07-29T11:11:53.754Z,39.50
2022-07-29T11:14:58.530Z,40.00
2022-07-29T11:17:26.819Z,40.60
2022-07-29T11:20:33.944Z,40.40
2022-07-29T11:23:18.981Z,40.40
2022-07-29T11:25:50.625Z,40.50
2022-07-29T11:28:25.454Z,40.30
2022-07-29T11:30:55.553Z,40.40
2022-07-29T11:33:54.049Z,40.50
2022-07-29T11:36:19.406Z,40.20
2022-07-29T11:39:36.815Z,40.20
2022-07-29T11:42:41.929Z,40.20
2022-07-29T11:45:46.978Z,40.10
2022-07-29T11:48:29.366Z,40.20
2022-07-29T11:51:00.569Z,39.70
2022-07-29T11:53:32.843Z,40.00
2022-07-29T11:56:03.529Z,39.70
2022-07-29T11:58:33.039Z,39.40
2022-07-29T12:01:04.111Z,39.30
2022-07-29T12:06:23.333Z,39.10
2022-07-29T12:08:51.967Z,38.60
2022-07-29T12:11:23.473Z,38.60
2022-07-29T12:13:52.600Z,38.60
2022-07-29T12:16:27.678Z,38.60
2022-07-29T12:18:59.923Z,38.50
2022-07-29T12:21:28.804Z,38.20
2022-07-29T12:24:04.811Z,37.90
2022-07-29T12:26:51.593Z,37.70
2022-07-29T12:29:20.566Z,37.20
2022-07-29T12:32:05.186Z,37.60
2022-07-29T12:34:34.591Z,36.80
2022-07-29T12:37:03.715Z,37.10
2022-07-29T12:39:32.883Z,37.20
2022-07-29T12:42:04.555Z,37.30
2022-07-29T12:44:46.884Z,37.20
2022-07-29T12:47:15.145Z,37.20
2022-07-29T12:49:44.253Z,37.20
2022-07-29T12:52:32.939Z,37.20
2022-07-29T12:55:02.261Z,37.20
2022-07-29T12:57:32.658Z,37.20
2022-07-29T13:00:11.984Z,37.30
2022-07-29T13:02:41.818Z,37.10
2022-07-29T13:05:11.836Z,37.40
2022-07-29T13:07:55.804Z,37.50
2022-07-29T13:10:26.587Z,37.50
2022-07-29T13:13:10.514Z,37.70
2022-07-29T13:15:39.869Z,37.20
2022-07-29T13:18:28.730Z,37.40
2022-07-29T13:20:57.702Z,37.10
2022-07-29T13:23:25.840Z,37.30
2022-07-29T13:25:54.363Z,37.30
2022-07-29T13:28:25.150Z,37.20
2022-07-29T13:30:53.342Z,37.00
2022-07-29T13:33:21.436Z,36.90
2022-07-29T13:35:50.073Z,36.70
2022-07-29T13:38:18.270Z,36.60
2022-07-29T13:40:46.862Z,36.80
2022-07-29T13:43:15.304Z,36.70
2022-07-29T13:45:45.224Z,37.00
2022-07-29T13:48:13.799Z,37.20
2022-07-29T13:50:41.858Z,37.30
2022-07-29T13:53:10.409Z,37.30
2022-07-29T13:55:46.250Z,37.40
2022-07-29T13:58:16.019Z,37.70
2022-07-29T14:00:45.492Z,37.70
2022-07-29T14:03:14.016Z,37.70
2022-07-29T14:05:42.118Z,37.70
2022-07-29T14:08:10.655Z,38.00
2022-07-29T14:10:39.178Z,38.10
2022-07-29T14:13:07.328Z,38.40
2022-07-29T14:15:55.709Z,38.60
2022-07-29T14:18:24.458Z,38.40
2022-07-29T14:20:52.792Z,38.70
2022-07-29T14:23:21.660Z,38.80
2022-07-29T14:25:50.073Z,38.70
2022-07-29T14:28:18.592Z,39.00
2022-07-29T14:30:47.215Z,39.10
2022-07-29T14:33:17.183Z,39.50
2022-07-29T14:35:46.285Z,39.90
2022-07-29T14:38:14.870Z,40.00
2022-07-29T14:40:43.106Z,40.50
2022-07-29T14:43:11.272Z,41.00
2022-07-29T14:45:39.396Z,41.30
2022-07-29T14:48:07.864Z,41.80
2022-07-29T14:50:37.417Z,41.90
2022-07-29T14:53:06.433Z,42.10
2022-07-29T14:55:34.579Z,42.30
2022-07-29T14:58:09.891Z,42.80
2022-07-29T15:00:40.442Z,42.90
2022-07-29T15:03:11.192Z,42.80
2022-07-29T15:05:40.972Z,43.40
2022-07-29T15:08:10.192Z,43.60
2022-07-29T15:10:38.322Z,43.80
2022-07-29T15:13:06.933Z,43.90
2022-07-29T15:15:35.115Z,44.40
2022-07-29T15:18:03.347Z,44.50
2022-07-29T15:20:31.958Z,44.80
2022-07-29T15:23:01.431Z,45.60
2022-07-29T15:25:30.015Z,46.30
2022-07-29T15:28:01.529Z,47.70
2022-07-29T15:30:33.693Z,47.40
2022-07-29T15:33:03.258Z,48.10
2022-07-29T15:35:31.511Z,48.90
2022-07-29T15:38:01.021Z,48.60
2022-07-29T15:40:29.437Z,49.70
2022-07-29T15:42:58.754Z,50.00
2022-07-29T15:45:26.983Z,50.10
2022-07-29T15:48:01.149Z,50.90
2022-07-29T15:50:29.233Z,51.20
2022-07-29T15:52:57.777Z,51.30
2022-07-29T15:55:27.883Z,51.40
2022-07-29T15:58:00.502Z,51.70
2022-07-29T16:00:28.945Z,52.00
2022-07-29T16:02:57.795Z,52.20
2022-07-29T16:05:26.315Z,52.50
2022-07-29T16:07:54.868Z,52.90
2022-07-29T16:10:23.493Z,52.90
2022-07-29T16:12:53.146Z,53.50
2022-07-29T16:15:21.648Z,53.90
2022-07-29T16:17:50.431Z,53.90
2022-07-29T16:20:19.097Z,54.30
2022-07-29T16:22:47.234Z,54.50
2022-07-29T16:25:15.398Z,54.70
2022-07-29T16:27:43.995Z,55.00
2022-07-29T16:30:13.988Z,55.70
2022-07-29T16:32:42.536Z,54.90
2022-07-29T16:35:11.099Z,55.30
2022-07-29T16:37:39.547Z,56.20
2022-07-29T16:40:11.784Z,58.60
2022-07-29T16:42:47.896Z,61.70
2022-07-29T16:45:18.160Z,63.40
2022-07-29T16:47:49.611Z,65.80
2022-07-29T16:50:18.216Z,66.90
2022-07-29T16:52:46.840Z,68.10
2022-07-29T16:55:15.008Z,68.90
2022-07-29T16:57:43.868Z,69.50
2022-07-29T17:00:13.116Z,70.30
2022-07-29T17:02:43.109Z,71.60
2022-07-29T17:05:12.374Z,72.10
2022-07-29T17:07:41.027Z,72.60
2022-07-29T17:10:10.872Z,73.60
2022-07-29T17:12:40.881Z,74.90
2022-07-29T17:15:12.782Z,75.60
2022-07-29T17:17:55.056Z,76.60
2022-07-29T17:20:26.581Z,76.70
2022-07-29T17:22:55.210Z,77.10
2022-07-29T17:25:24.678Z,77.40
2022-07-29T17:27:57.510Z,77.70
2022-07-29T17:30:28.593Z,78.20
2022-07-29T17:32:58.574Z,77.90
2022-07-29T17:35:44.808Z,77.70
2022-07-29T17:38:12.948Z,77.90
2022-07-29T17:40:41.493Z,78.10
2022-07-29T17:43:10.368Z,78.00
2022-07-29T17:45:50.165Z,77.80
2022-07-29T17:48:20.711Z,78.00
2022-07-29T17:50:49.665Z,76.30
2022-07-29T17:53:18.218Z,76.60
2022-07-29T17:55:49.031Z,76.60
2022-07-29T17:58:17.696Z,77.00
2022-07-29T18:00:45.882Z,77.20
2022-07-29T18:03:14.560Z,76.80
2022-07-29T18:05:44.974Z,76.60
2022-07-29T18:08:13.273Z,77.00
2022-07-29T18:10:41.786Z,76.10
2022-07-29T18:13:10.048Z,76.10
2022-07-29T18:15:38.595Z,76.40
2022-07-29T18:18:07.394Z,76.40
2022-07-29T18:20:35.736Z,76.40
2022-07-29T18:23:05.796Z,75.90
2022-07-29T18:25:34.473Z,75.90
2022-07-29T18:28:03.020Z,75.50
2022-07-29T18:30:33.813Z,75.70
2022-07-29T18:33:20.847Z,74.80
2022-07-29T18:35:51.065Z,74.10
2022-07-29T18:38:21.936Z,74.00
2022-07-29T18:40:50.692Z,74.00
2022-07-29T18:43:18.873Z,73.80
2022-07-29T18:45:48.073Z,73.80
2022-07-29T18:48:16.259Z,74.00
2022-07-29T18:50:44.859Z,74.00
2022-07-29T18:53:13.003Z,73.50
2022-07-29T18:55:42.536Z,73.70
2022-07-29T18:58:10.924Z,73.80
2022-07-29T19:00:39.046Z,72.80
2022-07-29T19:03:07.276Z,72.60
2022-07-29T19:05:36.097Z,72.60
2022-07-29T19:08:04.830Z,72.80
2022-07-29T19:10:33.014Z,72.20
2022-07-29T19:13:02.982Z,72.20
2022-07-29T19:15:31.225Z,72.20
2022-07-29T19:18:01.251Z,71.80
2022-07-29T19:20:29.885Z,72.00
2022-07-29T19:22:58.993Z,72.20
2022-07-29T19:25:27.328Z,72.50
2022-07-29T19:27:55.425Z,72.00
2022-07-29T19:30:24.933Z,72.00
2022-07-29T19:32:53.150Z,72.00
2022-07-29T19:35:31.613Z,71.60
2022-07-29T19:38:03.336Z,71.70
2022-07-29T19:40:31.765Z,71.90
2022-07-29T19:43:00.743Z,71.60
2022-07-29T19:45:30.460Z,71.40
2022-07-29T19:48:01.448Z,71.60
2022-07-29T19:50:30.125Z,71.40
2022-07-29T19:52:58.635Z,71.50
2022-07-29T19:55:27.275Z,71.40
2022-07-29T19:57:56.072Z,71.40
2022-07-29T20:00:25.208Z,70.90
2022-07-29T20:02:57.729Z,71.10
2022-07-29T20:05:28.079Z,71.40
2022-07-29T20:07:57.037Z,71.10
2022-07-29T20:10:25.311Z,70.60
2022-07-29T20:12:55.037Z,70.30
2022-07-29T20:15:24.012Z,69.80
2022-07-29T20:17:56.952Z,69.90
2022-07-29T20:20:27.316Z,70.30
2022-07-29T20:22:55.482Z,70.40
2022-07-29T20:25:24.072Z,70.50
2022-07-29T20:27:53.269Z,70.70
2022-07-29T20:30:22.302Z,70.20
2022-07-29T20:32:50.844Z,70.30
2022-07-29T20:35:19.801Z,70.10
2022-07-29T20:37:55.977Z,70.10
2022-07-29T20:40:25.242Z,70.70
2022-07-29T20:42:53.795Z,70.40
2022-07-29T20:45:21.992Z,70.40
2022-07-29T20:47:52.138Z,69.90
2022-07-29T20:50:23.631Z,70.00
2022-07-29T20:52:54.198Z,70.10
2022-07-29T20:55:22.422Z,70.30
2022-07-29T20:57:50.521Z,70.10
2022-07-29T21:00:19.048Z,70.20
2022-07-29T21:02:47.422Z,69.80
2022-07-29T21:05:15.965Z,70.10
2022-07-29T21:07:44.539Z,69.80
2022-07-29T21:10:15.006Z,69.60
2022-07-29T21:12:43.133Z,69.60
2022-07-29T21:15:13.679Z,69.80
2022-07-29T21:17:46.837Z,70.10
2022-07-29T21:20:16.880Z,70.20
2022-07-29T21:22:45.581Z,69.90
2022-07-29T21:25:15.144Z,69.70
2022-07-29T21:28:03.941Z,69.60
2022-07-29T21:30:32.060Z,69.50
2022-07-29T21:33:00.290Z,69.60
2022-07-29T21:36:03.472Z,69.60
2022-07-29T21:38:18.395Z,69.60
2022-07-29T21:40:48.846Z,69.60
2022-07-29T21:43:17.809Z,69.80
2022-07-29T21:45:48.069Z,69.70
2022-07-29T21:48:16.207Z,69.70
2022-07-29T21:50:44.367Z,69.60
2022-07-29T21:53:13.838Z,69.80
2022-07-29T21:55:44.114Z,69.60
2022-07-29T21:58:15.516Z,69.60
2022-07-29T22:00:44.660Z,69.80
2022-07-29T22:03:13.355Z,69.60
2022-07-29T22:05:41.886Z,69.60
2022-07-29T22:08:10.431Z,69.40
2022-07-29T22:10:38.590Z,69.50
2022-07-29T22:13:07.245Z,69.60
2022-07-29T22:15:37.230Z,69.60
2022-07-29T22:18:06.038Z,69.60
2022-07-29T22:20:34.236Z,69.80
2022-07-29T22:23:06.609Z,70.10
2022-07-29T22:25:34.901Z,70.10
2022-07-29T22:28:03.509Z,70.10
2022-07-29T22:30:32.175Z,70.00
2022-07-29T22:33:01.677Z,70.10
2022-07-29T22:35:29.910Z,70.00
2022-07-29T22:37:58.494Z,70.00
2022-07-29T22:40:30.837Z,69.80
2022-07-29T22:43:01.132Z,69.70
2022-07-29T22:45:29.266Z,69.70
2022-07-29T22:47:59.088Z,69.80
2022-07-29T22:50:28.951Z,69.60
2022-07-29T22:52:57.505Z,69.80
2022-07-29T22:55:26.034Z,70.00
2022-07-29T22:57:54.590Z,69.90
2022-07-29T23:00:22.797Z,70.00
2022-07-29T23:02:51.401Z,69.80
2022-07-29T23:05:19.640Z,69.50
2022-07-29T23:07:49.545Z,69.60
2022-07-29T23:10:17.935Z,69.60
2022-07-29T23:12:46.464Z,69.70
2022-07-29T23:15:14.701Z,69.80
2022-07-29T23:17:43.247Z,69.80
2022-07-29T23:20:11.930Z,69.70
2022-07-29T23:22:43.860Z,69.50
2022-07-29T23:25:13.443Z,69.60
2022-07-29T23:27:42.343Z,69.60
2022-07-29T23:30:12.140Z,69.80
2022-07-29T23:32:40.360Z,69.90
2022-07-29T23:35:10.023Z,69.70
2022-07-29T23:37:39.810Z,69.80
2022-07-29T23:40:14.263Z,69.70
2022-07-29T23:42:44.788Z,69.60
2022-07-29T23:45:14.899Z,69.70
2022-07-29T23:47:43.637Z,69.80
2022-07-29T23:50:13.722Z,69.70
2022-07-29T23:52:42.623Z,69.70
2022-07-29T23:55:36.935Z,69.80
2022-07-29T23:58:02.002Z,69.80
